Database contains data from 2013-07-07 to 2026-09-05.
135 measurements (hourly aggregated)
| Time | Temp °C | Dew °C | Humid % | Wind m/s | Gust m/s | Dir ° | Rain mm | Press. hPa | UV | Solar W/m² |
|---|---|---|---|---|---|---|---|---|---|---|
| 31.08.2026 00:00 | 13,1 | 11,6 | 91 | 0,1 | 2,2 | 315 | 0,00 | 1 003,7 | 0,0 | 0 |
| 31.08.2026 01:00 | 12,6 | 11,6 | 94 | 0,2 | 2,2 | 329 | 0,51 | 1 003,8 | 0,0 | 0 |
| 31.08.2026 02:00 | 12,3 | 11,4 | 94 | 0,2 | 2,2 | 338 | 0,00 | 1 004,0 | 0,0 | 0 |
| 31.08.2026 03:00 | 12,2 | 11,4 | 95 | 0,0 | 0,0 | – | 0,00 | 1 003,9 | 0,0 | 0 |
| 31.08.2026 04:00 | 12,1 | 11,5 | 96 | 0,0 | 0,0 | – | 0,00 | 1 003,6 | 0,0 | 0 |
| 31.08.2026 05:00 | 11,8 | 11,2 | 96 | 0,0 | 0,9 | 338 | 0,00 | 1 003,5 | 0,0 | 0 |
| 31.08.2026 06:00 | 11,4 | 10,8 | 96 | 0,0 | 0,9 | – | 0,00 | 1 003,6 | 0,0 | 3 |
| 31.08.2026 07:00 | 11,8 | 11,2 | 96 | 0,0 | 0,0 | – | 0,00 | 1 003,6 | 0,5 | 81 |
| 31.08.2026 08:00 | 12,1 | 11,5 | 96 | 0,0 | 0,9 | – | 0,00 | 1 003,6 | 0,8 | 155 |
| 31.08.2026 09:00 | 13,5 | 12,5 | 93 | 0,0 | 0,4 | – | 0,00 | 1 003,6 | 1,3 | 296 |
| 31.08.2026 10:00 | 16,2 | 13,0 | 81 | 0,5 | 2,2 | 160 | 0,00 | 1 003,3 | 2,1 | 463 |
| 31.08.2026 11:00 | 18,1 | 13,0 | 72 | 0,9 | 3,1 | 283 | 0,00 | 1 003,4 | 2,6 | 539 |
| 31.08.2026 12:00 | 18,6 | 12,9 | 69 | 0,7 | 3,1 | 272 | 0,00 | 1 003,2 | 3,0 | 429 |
| 31.08.2026 13:00 | 18,4 | 13,0 | 71 | 1,1 | 4,0 | 246 | 0,00 | 1 003,2 | 3,2 | 422 |
| 31.08.2026 14:00 | 19,3 | 13,0 | 67 | 1,8 | 4,5 | 263 | 0,00 | 1 003,5 | 3,3 | 600 |
| 31.08.2026 15:00 | 18,7 | 12,8 | 69 | 2,0 | 5,8 | 270 | 0,00 | 1 003,5 | 2,9 | 501 |
| 31.08.2026 16:00 | 18,0 | 12,4 | 70 | 2,5 | 6,7 | 266 | 0,00 | 1 003,6 | 2,3 | 435 |
| 31.08.2026 17:00 | 17,2 | 12,0 | 71 | 2,2 | 6,7 | 270 | 0,00 | 1 003,8 | 1,7 | 260 |
| 31.08.2026 18:00 | 16,6 | 11,3 | 71 | 1,8 | 5,4 | 268 | 0,00 | 1 003,9 | 1,0 | 211 |
| 31.08.2026 19:00 | 16,3 | 10,6 | 69 | 1,6 | 5,8 | 272 | 0,00 | 1 004,2 | 0,8 | 117 |
| 31.08.2026 20:00 | 14,8 | 10,5 | 75 | 0,7 | 4,5 | 295 | 0,00 | 1 004,7 | 0,0 | 11 |
| 31.08.2026 21:00 | 13,7 | 10,2 | 79 | 0,3 | 2,2 | 315 | 0,00 | 1 005,2 | 0,0 | 0 |
| 31.08.2026 22:00 | 13,1 | 10,4 | 83 | 0,0 | 1,3 | 315 | 0,00 | 1 005,5 | 0,0 | 0 |
| 31.08.2026 23:00 | 12,2 | 10,0 | 86 | 0,0 | 0,0 | – | 0,00 | 1 005,7 | 0,0 | 0 |
| 01.09.2026 00:00 | 11,3 | 9,7 | 90 | 0,1 | 1,8 | 315 | 0,00 | 1 006,1 | 0,0 | 0 |
| 01.09.2026 01:00 | 10,9 | 9,7 | 92 | 0,0 | 0,9 | – | 0,00 | 1 006,2 | 0,0 | 0 |
| 01.09.2026 02:00 | 10,3 | 9,2 | 93 | 0,0 | 0,0 | – | 0,00 | 1 006,4 | 0,0 | 0 |
| 01.09.2026 03:00 | 9,8 | 9,0 | 94 | 0,0 | 0,0 | – | 0,00 | 1 006,6 | 0,0 | 0 |
| 01.09.2026 04:00 | 9,4 | 8,6 | 95 | 0,0 | 0,9 | – | 0,00 | 1 006,7 | 0,0 | 0 |
| 01.09.2026 05:00 | 9,2 | 8,5 | 95 | 0,0 | 1,3 | 315 | 0,00 | 1 006,8 | 0,0 | 0 |
| 01.09.2026 06:00 | 9,4 | 8,8 | 96 | 0,2 | 1,8 | 338 | 0,00 | 1 006,8 | 0,0 | 5 |
| 01.09.2026 07:00 | 10,0 | 9,3 | 95 | 0,1 | 1,3 | 338 | 0,00 | 1 006,9 | 0,0 | 35 |
| 01.09.2026 08:00 | 11,1 | 10,2 | 94 | 0,3 | 1,8 | 338 | 0,25 | 1 007,1 | 0,0 | 35 |
| 01.09.2026 09:00 | 11,5 | 10,7 | 95 | 0,1 | 1,3 | 338 | 0,51 | 1 007,3 | 0,9 | 54 |
| 01.09.2026 10:00 | 12,3 | 11,5 | 94 | 0,0 | 1,3 | 338 | 0,25 | 1 007,3 | 1,1 | 148 |
| 01.09.2026 11:00 | 13,2 | 11,8 | 92 | 0,3 | 3,1 | 143 | 0,00 | 1 007,3 | 1,4 | 161 |
| 01.09.2026 12:00 | 14,2 | 12,4 | 89 | 1,2 | 3,6 | 148 | 0,00 | 1 007,2 | 1,7 | 227 |
| 01.09.2026 13:00 | 14,7 | 12,2 | 86 | 1,9 | 4,5 | 144 | 0,00 | 1 007,2 | 2,1 | 221 |
| 01.09.2026 14:00 | 13,9 | 12,4 | 91 | 1,4 | 4,5 | 159 | 0,25 | 1 007,0 | 1,6 | 122 |
| 01.09.2026 15:00 | 13,7 | 12,8 | 94 | 1,8 | 4,5 | 158 | 0,00 | 1 006,8 | 1,3 | 108 |
| 01.09.2026 16:00 | 13,6 | 12,8 | 95 | 2,0 | 4,9 | 165 | 0,25 | 1 006,7 | 1,8 | 144 |
| 01.09.2026 17:00 | 13,3 | 12,5 | 95 | 1,8 | 5,8 | 161 | 0,00 | 1 006,7 | 1,1 | 150 |
| 01.09.2026 18:00 | 13,6 | 12,6 | 94 | 2,1 | 5,8 | 154 | 0,00 | 1 006,2 | 0,8 | 69 |
| 01.09.2026 19:00 | 13,8 | 11,9 | 88 | 2,8 | 7,2 | 156 | 0,00 | 1 005,8 | 0,5 | 34 |
| 01.09.2026 20:00 | 13,4 | 11,3 | 88 | 3,6 | 8,0 | 139 | 0,25 | 1 004,8 | 0,0 | 3 |
| 01.09.2026 21:00 | 12,8 | 11,4 | 91 | 3,6 | 8,0 | 139 | 2,79 | 1 003,9 | 0,0 | 0 |
| 01.09.2026 22:00 | 12,7 | 11,7 | 94 | 2,5 | 10,7 | 182 | 1,27 | 1 004,0 | 0,0 | 0 |
| 01.09.2026 23:00 | 12,6 | 11,6 | 94 | 0,1 | 1,8 | 248 | 0,00 | 1 004,7 | 0,0 | 0 |
| 02.09.2026 00:00 | 12,2 | 11,1 | 93 | 0,6 | 3,6 | 225 | 0,00 | 1 005,2 | 0,0 | 0 |
| 02.09.2026 01:00 | 11,6 | 10,4 | 92 | 0,3 | 3,1 | 225 | 0,00 | 1 005,5 | 0,0 | 0 |
| 02.09.2026 02:00 | 11,7 | 10,4 | 92 | 0,7 | 3,1 | 170 | 0,25 | 1 005,1 | 0,0 | 0 |
| 02.09.2026 03:00 | 11,7 | 10,6 | 93 | 0,7 | 4,0 | 189 | 1,52 | 1 005,2 | 0,0 | 0 |
| 02.09.2026 04:00 | 11,7 | 10,8 | 95 | 0,5 | 2,7 | 182 | 0,51 | 1 005,1 | 0,0 | 0 |
| 02.09.2026 05:00 | 11,4 | 10,6 | 94 | 0,8 | 3,6 | 203 | 0,00 | 1 004,9 | 0,0 | 0 |
| 02.09.2026 06:00 | 11,1 | 9,9 | 92 | 0,7 | 4,0 | 221 | 0,25 | 1 005,0 | 0,0 | 1 |
| 02.09.2026 07:00 | 11,0 | 9,9 | 93 | 0,8 | 4,0 | 228 | 0,51 | 1 005,1 | 0,0 | 21 |
| 02.09.2026 08:00 | 11,0 | 9,9 | 93 | 0,6 | 3,6 | 218 | 0,00 | 1 005,5 | 0,6 | 42 |
| 02.09.2026 09:00 | 11,2 | 10,3 | 94 | 0,7 | 5,8 | 222 | 0,51 | 1 005,9 | 0,9 | 98 |
| 02.09.2026 10:00 | 11,9 | 10,6 | 92 | 1,4 | 5,8 | 225 | 0,00 | 1 006,3 | 1,6 | 197 |
| 02.09.2026 11:00 | 13,5 | 10,5 | 82 | 2,7 | 7,6 | 229 | 0,00 | 1 006,7 | 2,1 | 394 |
| 02.09.2026 12:00 | 13,2 | 10,5 | 84 | 2,4 | 7,2 | 227 | 0,51 | 1 007,0 | 2,5 | 290 |
| 02.09.2026 13:00 | 12,8 | 9,8 | 82 | 2,8 | 8,5 | 225 | 0,00 | 1 007,5 | 1,8 | 223 |
| 02.09.2026 14:00 | 12,9 | 9,5 | 80 | 2,5 | 7,6 | 218 | 0,00 | 1 007,7 | 2,0 | 225 |
| 02.09.2026 15:00 | 13,1 | 9,9 | 81 | 2,2 | 8,5 | 206 | 0,00 | 1 007,8 | 1,9 | 278 |
| 02.09.2026 16:00 | 13,3 | 9,9 | 80 | 2,1 | 6,3 | 203 | 0,00 | 1 008,0 | 2,2 | 260 |
| 02.09.2026 17:00 | 12,1 | 10,0 | 87 | 2,3 | 8,5 | 214 | 0,51 | 1 007,9 | 1,1 | 130 |
| 02.09.2026 18:00 | 11,4 | 9,7 | 90 | 2,1 | 7,2 | 216 | 0,76 | 1 008,0 | 0,6 | 42 |
| 02.09.2026 19:00 | 11,0 | 9,8 | 93 | 1,5 | 6,3 | 225 | 0,51 | 1 007,9 | 0,0 | 15 |
| 02.09.2026 20:00 | 11,0 | 10,0 | 93 | 1,4 | 7,6 | 218 | 0,51 | 1 007,9 | 0,0 | 2 |
| 02.09.2026 21:00 | 10,8 | 9,9 | 94 | 1,0 | 4,9 | 211 | 0,25 | 1 008,2 | 0,0 | 0 |
| 02.09.2026 22:00 | 10,8 | 9,9 | 94 | 0,7 | 3,1 | 221 | 0,00 | 1 008,3 | 0,0 | 0 |
| 02.09.2026 23:00 | 10,8 | 9,9 | 94 | 0,8 | 4,9 | 209 | 0,00 | 1 008,3 | 0,0 | 0 |
| 03.09.2026 00:00 | 10,5 | 9,7 | 95 | 0,7 | 3,6 | 195 | 0,51 | 1 008,4 | 0,0 | 0 |
| 03.09.2026 01:00 | 10,3 | 9,6 | 95 | 0,5 | 2,7 | 236 | 0,25 | 1 008,4 | 0,0 | 0 |
| 03.09.2026 02:00 | 10,3 | 9,6 | 95 | 0,1 | 2,7 | 173 | 0,25 | 1 008,2 | 0,0 | 0 |
| 03.09.2026 03:00 | 9,9 | 9,3 | 96 | 0,1 | 2,2 | 191 | 0,00 | 1 007,7 | 0,0 | 0 |
| 03.09.2026 04:00 | 9,9 | 9,3 | 96 | 0,5 | 1,8 | 180 | 0,00 | 1 007,4 | 0,0 | 0 |
| 03.09.2026 05:00 | 9,7 | 9,0 | 95 | 0,8 | 2,2 | 105 | 0,25 | 1 007,0 | 0,0 | 0 |
| 03.09.2026 06:00 | 9,7 | 8,8 | 94 | 0,5 | 2,2 | 68 | 0,00 | 1 006,8 | 0,0 | 3 |
| 03.09.2026 07:00 | 9,4 | 8,2 | 92 | 1,0 | 2,7 | 34 | 0,00 | 1 006,5 | 0,3 | 34 |
| 03.09.2026 08:00 | 10,0 | 8,6 | 91 | 0,8 | 2,7 | 41 | 0,00 | 1 005,9 | 0,7 | 166 |
| 03.09.2026 09:00 | 11,5 | 9,3 | 86 | 0,7 | 2,7 | 84 | 0,00 | 1 005,3 | 1,3 | 288 |
| 03.09.2026 10:00 | 12,3 | 8,3 | 77 | 1,0 | 3,1 | 129 | 0,00 | 1 004,9 | 1,5 | 319 |
| 03.09.2026 11:00 | 13,3 | 8,3 | 72 | 0,8 | 2,7 | 135 | 0,00 | 1 004,5 | 2,4 | 437 |
| 03.09.2026 12:00 | 15,3 | 9,5 | 69 | 0,6 | 2,7 | 96 | 0,00 | 1 003,8 | 2,7 | 555 |
| 03.09.2026 13:00 | 15,7 | 9,5 | 66 | 0,4 | 2,2 | 113 | 0,00 | 1 003,0 | 2,8 | 474 |
| 03.09.2026 14:00 | 15,8 | 10,3 | 70 | 0,3 | 1,8 | 145 | 0,00 | 1 002,4 | 2,1 | 320 |
| 03.09.2026 15:00 | 15,9 | 8,6 | 62 | 0,0 | 1,8 | 180 | 0,00 | 1 002,1 | 2,0 | 236 |
| 03.09.2026 16:00 | 15,6 | 10,2 | 70 | 0,6 | 2,7 | 225 | 0,00 | 1 001,8 | 1,2 | 112 |
| 03.09.2026 17:00 | 15,2 | 10,2 | 72 | 0,2 | 1,8 | 257 | 0,00 | 1 001,4 | 0,8 | 87 |
| 03.09.2026 18:00 | 14,8 | 10,8 | 77 | 0,0 | 0,9 | – | 0,00 | 1 000,8 | 0,7 | 71 |
| 03.09.2026 19:00 | 14,5 | 10,8 | 79 | 0,0 | 0,4 | – | 0,00 | 1 000,3 | 0,5 | 58 |
| 03.09.2026 20:00 | 14,2 | 11,0 | 81 | 0,1 | 1,3 | 270 | 0,00 | 1 000,0 | 0,0 | 7 |
| 03.09.2026 21:00 | 13,4 | 11,1 | 86 | 0,3 | 1,8 | 270 | 0,00 | 999,5 | 0,0 | 0 |
| 03.09.2026 22:00 | 12,4 | 10,8 | 90 | 0,4 | 1,3 | 270 | 0,25 | 999,4 | 0,0 | 0 |
| 03.09.2026 23:00 | 11,9 | 10,8 | 93 | 0,0 | 1,3 | 270 | 0,25 | 999,2 | 0,0 | 0 |
| 04.09.2026 00:00 | 11,7 | 10,6 | 93 | 0,0 | 1,3 | – | 0,00 | 999,2 | 0,0 | 0 |
| 04.09.2026 01:00 | 10,9 | 10,0 | 94 | 0,1 | 1,3 | 270 | 2,54 | 999,2 | 0,0 | 0 |
| 04.09.2026 02:00 | 10,4 | 9,7 | 95 | 0,1 | 1,8 | 270 | 1,78 | 999,0 | 0,0 | 0 |
| 04.09.2026 03:00 | 10,5 | 9,8 | 96 | 0,3 | 3,1 | 62 | 1,27 | 998,9 | 0,0 | 0 |
| 04.09.2026 04:00 | 10,8 | 10,2 | 96 | 0,0 | 0,9 | 203 | 0,25 | 998,9 | 0,0 | 0 |
| 04.09.2026 05:00 | 11,0 | 10,4 | 96 | 0,5 | 1,3 | 203 | 0,00 | 998,5 | 0,0 | 0 |
| 04.09.2026 06:00 | 11,2 | 10,6 | 96 | 0,8 | 2,2 | 145 | 0,00 | 998,2 | 0,0 | 0 |
| 04.09.2026 07:00 | 11,3 | 10,7 | 96 | 0,5 | 3,1 | 79 | 0,25 | 998,0 | 0,0 | 11 |
| 04.09.2026 08:00 | 12,0 | 11,4 | 96 | 0,7 | 2,7 | 45 | 0,00 | 997,6 | 0,7 | 159 |
| 04.09.2026 09:00 | 12,9 | 12,1 | 95 | 0,4 | 2,2 | 45 | 0,00 | 997,2 | 1,2 | 206 |
| 04.09.2026 10:00 | 14,4 | 12,6 | 89 | 1,3 | 3,6 | 122 | 0,00 | 996,8 | 1,7 | 353 |
| 04.09.2026 11:00 | 15,0 | 12,4 | 85 | 1,4 | 3,6 | 144 | 0,00 | 996,5 | 2,3 | 354 |
| 04.09.2026 12:00 | 16,2 | 12,7 | 80 | 1,4 | 3,6 | 144 | 0,00 | 995,9 | 2,5 | 404 |
| 04.09.2026 13:00 | 16,4 | 12,7 | 79 | 1,2 | 3,6 | 146 | 0,00 | 995,6 | 3,0 | 384 |
| 04.09.2026 14:00 | 16,6 | 12,0 | 74 | 0,9 | 3,1 | 124 | 0,00 | 994,9 | 2,7 | 305 |
| 04.09.2026 15:00 | 16,3 | 12,0 | 76 | 0,7 | 3,1 | 125 | 0,00 | 994,6 | 1,7 | 166 |
| 04.09.2026 16:00 | 16,0 | 12,2 | 78 | 1,0 | 3,6 | 163 | 0,00 | 994,3 | 1,3 | 181 |
| 04.09.2026 17:00 | 15,7 | 12,5 | 81 | 0,9 | 3,1 | 182 | 0,00 | 994,0 | 1,3 | 235 |
| 04.09.2026 18:00 | 15,1 | 12,2 | 83 | 1,0 | 3,1 | 152 | 0,00 | 993,8 | 0,9 | 116 |
| 04.09.2026 19:00 | 14,4 | 11,8 | 85 | 0,1 | 2,2 | 158 | 0,00 | 993,9 | 0,6 | 46 |
| 04.09.2026 20:00 | 14,1 | 11,5 | 84 | 0,1 | 1,3 | 158 | 0,00 | 994,2 | 0,0 | 5 |
| 04.09.2026 21:00 | 13,5 | 11,4 | 87 | 0,6 | 2,7 | 158 | 0,00 | 994,4 | 0,0 | 0 |
| 04.09.2026 22:00 | 12,9 | 11,6 | 92 | 0,4 | 3,6 | 158 | 1,78 | 994,5 | 0,0 | 0 |
| 04.09.2026 23:00 | 12,4 | 11,4 | 93 | 1,2 | 4,0 | 98 | 0,00 | 994,3 | 0,0 | 0 |
| 05.09.2026 00:00 | 12,3 | 11,2 | 93 | 1,1 | 4,0 | 71 | 0,00 | 994,4 | 0,0 | 0 |
| 05.09.2026 01:00 | 11,9 | 10,9 | 94 | 0,6 | 3,6 | 135 | 3,81 | 994,4 | 0,0 | 0 |
| 05.09.2026 02:00 | 11,7 | 10,9 | 95 | 0,6 | 3,1 | 86 | 0,25 | 994,1 | 0,0 | 0 |
| 05.09.2026 03:00 | 11,6 | 10,7 | 94 | 0,7 | 3,6 | 83 | 1,02 | 994,2 | 0,0 | 0 |
| 05.09.2026 04:00 | 11,6 | 10,7 | 94 | 0,9 | 2,7 | 53 | 0,51 | 994,2 | 0,0 | 0 |
| 05.09.2026 05:00 | 11,6 | 10,6 | 93 | 1,5 | 3,6 | 26 | 0,00 | 994,4 | 0,0 | 0 |
| 05.09.2026 06:00 | 11,4 | 10,2 | 92 | 0,7 | 2,2 | 13 | 0,00 | 995,0 | 0,0 | 0 |
| 05.09.2026 07:00 | 10,9 | 10,0 | 94 | 0,0 | 0,0 | – | 0,00 | 995,8 | 0,0 | 10 |
| 05.09.2026 08:00 | 11,4 | 10,6 | 95 | 0,0 | 0,0 | – | 0,00 | 996,6 | 0,6 | 66 |
| 05.09.2026 09:00 | 12,9 | 12,0 | 94 | 0,1 | 1,8 | 0 | 0,00 | 997,7 | 1,2 | 251 |
| 05.09.2026 10:00 | 15,4 | 12,7 | 84 | 0,3 | 2,7 | 293 | 0,00 | 998,6 | 1,5 | 339 |
| 05.09.2026 11:00 | 15,5 | 12,3 | 81 | 0,7 | 4,0 | 289 | 0,00 | 999,5 | 2,1 | 254 |
| 05.09.2026 12:00 | 15,9 | 12,5 | 80 | 0,9 | 4,0 | 274 | 0,00 | 1 000,7 | 2,8 | 415 |
| 05.09.2026 13:00 | 17,6 | 12,8 | 74 | 1,3 | 4,5 | 261 | 0,00 | 1 001,7 | 3,0 | 530 |
| 05.09.2026 14:00 | 16,7 | 12,8 | 77 | 1,6 | 6,3 | 267 | 0,00 | 1 002,7 | 2,8 | 318 |